Time;durP1;ratioP1;P1;durP2;ratioP2;P2;SDS_P1;SDS_P2;PMS_P1;PMS_P2;Temp;Humidity;BMP_temperature;BMP_pressure;BME280_temperature;BME280_humidity;BME280_pressure;Samples;Min_cycle;Max_cycle;Signal;HPM_P1;HPM_P2
2022/07/06 00:01:17;;;;;;;10.23;9.32;;;14.70;99.90;;;;;;5054649;28;20025;-81
2022/07/06 00:03:42;;;;;;;10.25;8.52;;;14.70;99.90;;;;;;5054555;28;20028;-81
2022/07/06 00:06:08;;;;;;;9.75;8.73;;;14.60;99.90;;;;;;5055667;28;20389;-80
2022/07/06 00:08:34;;;;;;;15.05;8.90;;;14.60;99.90;;;;;;5055336;28;20108;-80
2022/07/06 00:11:00;;;;;;;10.13;9.23;;;14.60;99.90;;;;;;5054642;28;20466;-80
2022/07/06 00:13:26;;;;;;;9.82;8.93;;;14.50;99.90;;;;;;5054336;28;20032;-80
2022/07/06 00:16:04;;;;;;;9.32;8.40;;;14.50;99.90;;;;;;5053833;28;20029;-80
2022/07/06 00:18:30;;;;;;;9.63;8.73;;;14.40;99.90;;;;;;5055642;28;20024;-80
2022/07/06 00:20:56;;;;;;;10.77;9.35;;;14.50;99.90;;;;;;5055120;28;20350;-80
2022/07/06 00:23:21;;;;;;;12.07;9.40;;;14.40;99.90;;;;;;5055221;28;20029;-81
2022/07/06 00:25:48;;;;;;;11.80;10.70;;;14.40;99.90;;;;;;5055324;28;20029;-80
2022/07/06 00:28:14;;;;;;;15.40;11.68;;;14.50;99.90;;;;;;5054088;28;20465;-81
2022/07/06 00:30:39;;;;;;;14.30;10.43;;;14.60;99.90;;;;;;5054945;28;20040;-80
2022/07/06 00:33:05;;;;;;;11.80;10.70;;;14.60;99.90;;;;;;5054900;28;20021;-80
2022/07/06 00:35:31;;;;;;;11.35;10.05;;;14.70;99.90;;;;;;5053775;28;20033;-80
2022/07/06 00:37:57;;;;;;;13.20;10.52;;;14.80;99.90;;;;;;5054896;28;20025;-79
2022/07/06 00:40:22;;;;;;;10.50;9.50;;;14.80;99.90;;;;;;5054515;28;20078;-79
2022/07/06 00:42:49;;;;;;;14.35;9.70;;;14.90;99.90;;;;;;5053384;28;20048;-79
2022/07/06 00:45:16;;;;;;;10.27;9.32;;;14.90;99.90;;;;;;5053358;28;20086;-79
2022/07/06 00:47:42;;;;;;;11.85;9.10;;;14.90;99.90;;;;;;5053774;28;20033;-80
2022/07/06 00:50:22;;;;;;;9.77;8.20;;;14.90;99.90;;;;;;5054574;28;20048;-80
2022/07/06 00:52:53;;;;;;;9.80;8.90;;;15.00;99.90;;;;;;5054688;28;20021;-80
2022/07/06 00:55:22;;;;;;;10.00;9.10;;;15.00;99.90;;;;;;5054311;28;20074;-80
2022/07/06 00:57:48;;;;;;;;;;;15.00;99.90;;;;;;5054537;28;20045;-80
2022/07/06 01:00:16;;;;;;;11.18;9.93;;;15.00;99.90;;;;;;5053143;28;20312;-80
2022/07/06 01:02:42;;;;;;;11.27;10.20;;;15.10;99.90;;;;;;5054423;28;20025;-81
2022/07/06 01:05:09;;;;;;;11.88;10.45;;;15.10;99.90;;;;;;5053029;28;20453;-80
2022/07/06 01:07:36;;;;;;;9.45;8.63;;;15.20;99.90;;;;;;5053337;28;20028;-80
2022/07/06 01:10:04;;;;;;;12.38;11.07;;;15.20;99.90;;;;;;5053157;28;20029;-81
2022/07/06 01:12:30;;;;;;;12.60;11.20;;;15.30;99.90;;;;;;5054218;28;20028;-80
2022/07/06 01:14:56;;;;;;;15.60;11.02;;;15.40;99.90;;;;;;5054102;28;20354;-80
2022/07/06 01:17:23;;;;;;;12.90;11.73;;;15.40;99.90;;;;;;5053865;28;20462;-79
2022/07/06 01:19:49;;;;;;;12.50;11.20;;;15.50;99.90;;;;;;5053768;28;20031;-80
2022/07/06 01:22:15;;;;;;;13.20;11.10;;;15.50;99.90;;;;;;5053849;28;20096;-80
2022/07/06 01:24:40;;;;;;;12.35;11.18;;;15.60;99.90;;;;;;5052801;28;20448;-80
2022/07/06 01:27:07;;;;;;;11.70;10.60;;;15.60;99.90;;;;;;5053930;28;20035;-80
2022/07/06 01:29:33;;;;;;;11.00;9.77;;;15.60;99.90;;;;;;5052669;28;20025;-80
2022/07/06 01:32:00;;;;;;;11.23;10.18;;;15.60;99.90;;;;;;5053974;28;20025;-80
2022/07/06 01:34:25;;;;;;;11.50;10.32;;;15.60;99.90;;;;;;5053906;28;20109;-80
2022/07/06 01:36:51;;;;;;;11.10;9.68;;;15.60;99.90;;;;;;5052740;28;20127;-79
2022/07/06 01:39:17;;;;;;;10.70;9.70;;;15.60;99.90;;;;;;5052549;28;20111;-80
2022/07/06 01:41:42;;;;;;;10.23;9.10;;;15.60;99.90;;;;;;5053696;28;20449;-80
2022/07/06 01:44:09;;;;;;;10.15;9.27;;;15.60;99.90;;;;;;5053438;28;20021;-80
2022/07/06 01:46:35;;;;;;;10.20;9.30;;;15.60;99.90;;;;;;5053606;28;20029;-80
2022/07/06 01:49:00;;;;;;;10.27;9.38;;;15.60;99.90;;;;;;5052492;28;20021;-80
2022/07/06 01:51:26;;;;;;;10.32;9.30;;;15.60;99.90;;;;;;5053707;28;20029;-80
2022/07/06 01:53:52;;;;;;;11.15;10.15;;;15.60;99.90;;;;;;5052522;28;20449;-80
2022/07/06 01:56:21;;;;;;;12.05;9.88;;;15.60;99.90;;;;;;5053714;28;20092;-81
2022/07/06 01:58:47;;;;;;;13.07;11.35;;;15.60;99.90;;;;;;5054161;28;20045;-80
2022/07/06 02:01:16;;;;;;;12.30;11.10;;;15.60;99.90;;;;;;5053723;28;20029;-80
2022/07/06 02:03:42;;;;;;;14.13;12.55;;;15.70;99.90;;;;;;5053609;28;20049;-81
2022/07/06 02:06:09;;;;;;;14.50;12.98;;;15.70;99.90;;;;;;5053667;28;20072;-80
2022/07/06 02:08:36;;;;;;;13.18;12.00;;;15.70;99.90;;;;;;5052722;28;20095;-80
2022/07/06 02:11:09;;;;;;;15.15;12.88;;;15.70;99.90;;;;;;5053708;28;20056;-80
2022/07/06 02:13:35;;;;;;;14.10;12.73;;;15.70;99.90;;;;;;5056166;28;20048;-81
2022/07/06 02:16:02;;;;;;;15.18;13.50;;;15.70;99.90;;;;;;5057413;28;20473;-80
2022/07/06 02:18:28;;;;;;;14.57;12.95;;;15.80;99.90;;;;;;5056101;28;20047;-80
2022/07/06 02:20:53;;;;;;;16.00;14.15;;;15.80;99.90;;;;;;5057439;28;20029;-80
2022/07/06 02:23:19;;;;;;;14.60;13.20;;;15.80;99.90;;;;;;5057287;28;20025;-80
2022/07/06 02:25:44;;;;;;;15.52;13.85;;;15.80;99.90;;;;;;5057184;28;20074;-81
2022/07/06 02:28:10;;;;;;;15.35;13.77;;;15.80;99.90;;;;;;5056978;28;20029;-80
2022/07/06 02:30:36;;;;;;;16.83;14.57;;;15.70;99.90;;;;;;5057157;28;20457;-81
2022/07/06 02:33:02;;;;;;;15.95;14.50;;;15.70;99.90;;;;;;5056025;28;20021;-81
2022/07/06 02:35:27;;;;;;;16.70;14.63;;;15.70;99.90;;;;;;5056964;28;20427;-80
2022/07/06 02:37:53;;;;;;;16.88;14.77;;;15.70;99.90;;;;;;5056984;28;20025;-80
2022/07/06 02:40:18;;;;;;;15.30;13.85;;;15.70;99.90;;;;;;5056890;28;20091;-80
2022/07/06 02:42:44;;;;;;;16.52;14.50;;;15.60;99.90;;;;;;5055652;28;20029;-80
2022/07/06 02:45:10;;;;;;;16.42;14.52;;;15.50;99.90;;;;;;5056619;28;20025;-80
2022/07/06 02:47:37;;;;;;;15.85;14.18;;;15.50;99.90;;;;;;5055511;28;20029;-80
2022/07/06 02:50:04;;;;;;;15.48;14.07;;;15.50;99.90;;;;;;5055279;28;20354;-79
2022/07/06 02:52:29;;;;;;;16.50;14.52;;;15.50;99.90;;;;;;5056378;28;20112;-80
2022/07/06 02:54:55;;;;;;;16.45;14.85;;;15.40;99.90;;;;;;5055365;28;20503;-80
2022/07/06 02:57:21;;;;;;;16.40;14.68;;;15.40;99.90;;;;;;5056373;28;20048;-80
2022/07/06 02:59:49;;;;;;;18.33;14.30;;;15.40;99.90;;;;;;5056602;28;20025;-81
2022/07/06 03:02:15;;;;;;;15.00;13.60;;;15.30;99.90;;;;;;5055462;28;20472;-80
2022/07/06 03:04:41;;;;;;;16.08;13.30;;;15.30;99.90;;;;;;5055387;28;20024;-80
2022/07/06 03:07:07;;;;;;;15.82;14.35;;;15.20;99.90;;;;;;5056795;28;20175;-80
2022/07/06 03:09:33;;;;;;;14.95;13.45;;;15.20;99.90;;;;;;5055251;28;20025;-81
2022/07/06 03:11:58;;;;;;;16.98;14.57;;;15.10;99.90;;;;;;5056461;28;20021;-80
2022/07/06 03:14:25;;;;;;;16.20;14.50;;;15.10;99.90;;;;;;5055157;28;20032;-80
2022/07/06 03:16:51;;;;;;;16.65;14.57;;;15.10;99.90;;;;;;5056261;28;20032;-80
2022/07/06 03:19:17;;;;;;;19.00;14.55;;;15.10;99.90;;;;;;5056315;28;20025;-80
2022/07/06 03:21:42;;;;;;;16.55;14.80;;;15.10;99.90;;;;;;5056157;28;20025;-81
2022/07/06 03:24:08;;;;;;;15.80;14.05;;;15.10;99.90;;;;;;5055119;28;20096;-81
2022/07/06 03:26:33;;;;;;;15.50;13.77;;;15.00;99.90;;;;;;5056256;28;20043;-80
2022/07/06 03:28:59;;;;;;;15.13;13.75;;;15.00;99.90;;;;;;5055045;28;20028;-81
2022/07/06 03:31:24;;;;;;;17.83;14.35;;;15.00;99.90;;;;;;5056241;28;20461;-80
2022/07/06 03:33:51;;;;;;;17.35;13.95;;;15.00;99.90;;;;;;5054934;28;20111;-80
2022/07/06 03:36:17;;;;;;;16.08;14.40;;;15.00;99.90;;;;;;5055549;28;20428;-80
2022/07/06 03:38:43;;;;;;;18.85;15.45;;;14.90;99.90;;;;;;5054984;28;20029;-80
2022/07/06 03:41:09;;;;;;;16.48;14.88;;;14.90;99.90;;;;;;5054617;28;20354;-81
2022/07/06 03:43:34;;;;;;;16.27;14.77;;;15.00;99.90;;;;;;5054758;28;20052;-80
2022/07/06 03:46:00;;;;;;;16.73;15.02;;;15.00;99.90;;;;;;5054583;28;20033;-80
2022/07/06 03:48:26;;;;;;;17.75;15.77;;;15.00;99.90;;;;;;5055614;28;20032;-79
2022/07/06 03:50:51;;;;;;;19.33;15.55;;;15.00;99.90;;;;;;5055942;28;20021;-80
2022/07/06 03:53:17;;;;;;;16.25;14.75;;;15.00;99.90;;;;;;5055291;28;20071;-80
2022/07/06 03:55:43;;;;;;;16.55;14.88;;;15.00;99.90;;;;;;5055525;28;20106;-81
2022/07/06 03:58:08;;;;;;;16.95;15.15;;;15.10;99.90;;;;;;5055515;28;20056;-80
2022/07/06 04:00:34;;;;;;;16.55;14.73;;;15.10;99.90;;;;;;5054295;28;20086;-81
2022/07/06 04:03:00;;;;;;;17.85;16.00;;;15.20;99.90;;;;;;5054179;28;20021;-80
2022/07/06 04:05:26;;;;;;;16.13;14.13;;;15.20;99.90;;;;;;5055206;28;20029;-80
2022/07/06 04:07:51;;;;;;;16.92;14.45;;;15.30;99.90;;;;;;5055395;28;20038;-80
2022/07/06 04:10:17;;;;;;;14.68;13.32;;;15.30;99.90;;;;;;5055361;28;20061;-80
2022/07/06 04:12:44;;;;;;;14.88;13.32;;;15.40;99.90;;;;;;5054039;28;20028;-80
2022/07/06 04:15:11;;;;;;;14.27;12.93;;;15.40;99.90;;;;;;5054828;28;20053;-80
2022/07/06 04:17:52;;;;;;;13.73;12.43;;;15.40;99.90;;;;;;5055123;28;20522;-80
2022/07/06 04:20:18;;;;;;;13.93;12.52;;;15.50;99.90;;;;;;5054980;28;20097;-79
2022/07/06 04:22:43;;;;;;;13.50;12.13;;;15.50;99.90;;;;;;5053763;28;20461;-80
2022/07/06 04:25:09;;;;;;;12.18;11.15;;;15.60;99.90;;;;;;5053860;28;20028;-81
2022/07/06 04:27:35;;;;;;;14.35;11.25;;;15.60;99.90;;;;;;5053736;28;20033;-80
2022/07/06 04:30:01;;;;;;;12.73;11.18;;;15.60;99.90;;;;;;5054886;28;20021;-81
2022/07/06 04:32:26;;;;;;;12.43;11.32;;;15.70;99.90;;;;;;5054515;28;20029;-62
2022/07/06 04:34:52;;;;;;;12.93;10.93;;;15.70;99.90;;;;;;5054737;28;20025;-62
2022/07/06 04:37:18;;;;;;;11.77;10.57;;;15.80;99.90;;;;;;5054082;28;20033;-62
2022/07/06 04:39:43;;;;;;;10.20;9.20;;;15.90;99.90;;;;;;5054479;28;20025;-62
2022/07/06 04:42:09;;;;;;;12.57;10.60;;;16.00;99.90;;;;;;5054692;28;20123;-63
2022/07/06 04:44:34;;;;;;;11.52;10.15;;;16.10;99.90;;;;;;5054421;28;20021;-63
2022/07/06 04:47:00;;;;;;;9.68;8.77;;;16.10;99.90;;;;;;5054548;28;20029;-62
2022/07/06 04:49:26;;;;;;;9.70;8.77;;;16.20;99.90;;;;;;5054259;28;20425;-62
2022/07/06 04:51:51;;;;;;;9.23;8.30;;;16.30;99.90;;;;;;5054272;28;20104;-62
2022/07/06 04:54:17;;;;;;;9.95;8.52;;;16.30;99.90;;;;;;5054075;28;20028;-78
2022/07/06 04:56:43;;;;;;;8.98;8.02;;;16.40;99.90;;;;;;5052726;28;20082;-80
2022/07/06 04:59:08;;;;;;;8.80;8.10;;;16.40;99.90;;;;;;5052795;28;20025;-79
2022/07/06 05:01:34;;;;;;;8.60;7.90;;;16.50;99.90;;;;;;5054126;28;20028;-78
2022/07/06 05:03:59;;;;;;;9.48;7.82;;;16.50;99.90;;;;;;5052847;28;20036;-79
2022/07/06 05:06:25;;;;;;;8.43;7.60;;;16.60;99.90;;;;;;5054101;28;20346;-79
2022/07/06 05:08:51;;;;;;;12.32;8.13;;;16.60;99.90;;;;;;5054238;28;20490;-81
2022/07/06 05:11:17;;;;;;;8.10;6.90;;;16.70;99.90;;;;;;5054146;28;20021;-78
2022/07/06 05:13:42;;;;;;;7.35;6.75;;;16.80;99.90;;;;;;5053876;28;20113;-79
2022/07/06 05:16:08;;;;;;;8.43;6.72;;;16.90;99.90;;;;;;5052645;28;20033;-80
2022/07/06 05:18:34;;;;;;;6.45;6.03;;;16.90;99.90;;;;;;5054253;28;20065;-78
2022/07/06 05:20:59;;;;;;;10.90;6.30;;;17.00;99.90;;;;;;5052633;28;20043;-78
2022/07/06 05:23:25;;;;;;;7.20;6.50;;;17.00;99.90;;;;;;5053860;28;20121;-79
2022/07/06 05:25:51;;;;;;;6.88;6.38;;;17.10;99.90;;;;;;5053793;28;20366;-80
2022/07/06 05:28:16;;;;;;;7.53;6.80;;;17.10;99.90;;;;;;5053964;28;20036;-84
2022/07/06 05:30:42;;;;;;;6.03;5.32;;;17.20;99.90;;;;;;5054032;28;20078;-81
2022/07/06 05:33:08;;;;;;;7.25;6.03;;;17.30;99.90;;;;;;5052690;28;20025;-81
2022/07/06 05:35:33;;;;;;;5.68;5.10;;;17.40;99.90;;;;;;5053652;28;20032;-80
2022/07/06 05:37:59;;;;;;;5.50;4.90;;;17.50;99.90;;;;;;5053987;28;20104;-79
2022/07/06 05:40:24;;;;;;;5.13;4.72;;;17.60;99.90;;;;;;5052392;28;20029;-81
2022/07/06 05:42:50;;;;;;;4.53;4.22;;;17.80;99.90;;;;;;5053950;28;20033;-79
2022/07/06 05:45:16;;;;;;;4.65;3.70;;;17.90;99.90;;;;;;5053688;28;20029;-80
2022/07/06 05:50:25;;;;;;;4.20;3.88;;;18.10;99.90;;;;;;5057747;28;20074;-80
2022/07/06 05:53:02;;;;;;;6.28;3.72;;;18.30;99.90;;;;;;5056399;28;20127;-80
2022/07/06 05:55:30;;;;;;;3.58;3.20;;;18.40;99.90;;;;;;5057643;28;20029;-80
2022/07/06 05:57:55;;;;;;;3.20;3.00;;;18.50;99.90;;;;;;5057651;28;20064;-80
2022/07/06 06:00:25;;;;;;;4.07;3.13;;;18.60;99.90;;;;;;5057470;28;20025;-80
2022/07/06 06:02:51;;;;;;;3.80;3.10;;;18.70;99.90;;;;;;5057320;28;20120;-80
2022/07/06 06:05:18;;;;;;;3.65;3.38;;;18.90;99.90;;;;;;5057491;28;20365;-80
2022/07/06 06:07:46;;;;;;;5.20;2.92;;;19.00;99.90;;;;;;5057731;28;20029;-81
2022/07/06 06:10:13;;;;;;;4.03;2.75;;;19.20;99.90;;;;;;5057450;28;20066;-80
2022/07/06 06:12:40;;;;;;;5.25;3.13;;;19.30;99.90;;;;;;5057534;28;20029;-79
2022/07/06 06:15:06;;;;;;;5.57;2.60;;;19.40;99.90;;;;;;5056008;28;20366;-79
2022/07/06 06:17:32;;;;;;;4.50;2.97;;;19.60;99.90;;;;;;5056895;28;20037;-79
2022/07/06 06:19:58;;;;;;;2.70;2.50;;;19.80;99.90;;;;;;5056071;28;20032;-80
2022/07/06 06:22:24;;;;;;;2.60;2.30;;;20.10;99.90;;;;;;5056111;28;20033;-79
2022/07/06 06:24:50;;;;;;;5.35;2.20;;;20.60;99.90;;;;;;5057259;28;20536;-79
2022/07/06 06:27:16;;;;;;;4.05;2.40;;;20.70;99.90;;;;;;5055842;28;20061;-79
2022/07/06 06:29:44;;;;;;;3.45;2.22;;;20.70;99.90;;;;;;5055733;28;20025;-79
2022/07/06 06:32:11;;;;;;;2.40;1.90;;;20.60;99.90;;;;;;5055736;28;20028;-79
2022/07/06 06:34:37;;;;;;;2.33;2.13;;;20.50;99.90;;;;;;5056832;28;20419;-79
2022/07/06 06:37:03;;;;;;;3.78;2.15;;;20.40;99.90;;;;;;5057223;28;20037;-79
2022/07/06 06:39:29;;;;;;;2.90;1.95;;;20.30;99.90;;;;;;5055539;28;20029;-79
2022/07/06 06:41:54;;;;;;;3.65;2.10;;;20.30;99.90;;;;;;5056941;28;20036;-78
2022/07/06 06:44:22;;;;;;;3.10;2.60;;;20.40;99.90;;;;;;5056900;28;20067;-78
2022/07/06 06:46:49;;;;;;;5.82;1.90;;;20.80;99.90;;;;;;5056751;28;20346;-78
2022/07/06 06:49:15;;;;;;;2.47;2.20;;;21.50;99.90;;;;;;5056403;28;20454;-78
2022/07/06 06:51:40;;;;;;;6.13;2.30;;;21.90;99.90;;;;;;5055147;28;20057;-79
2022/07/06 06:54:06;;;;;;;2.40;2.30;;;22.20;99.90;;;;;;5056568;28;20107;-79
2022/07/06 06:56:32;;;;;;;3.58;2.15;;;22.20;99.90;;;;;;5056027;28;20481;-80
2022/07/06 06:58:57;;;;;;;2.67;2.47;;;22.10;99.90;;;;;;5054950;28;20025;-79
2022/07/06 07:01:23;;;;;;;3.30;2.13;;;22.20;99.90;;;;;;5056519;28;20033;-77
2022/07/06 07:03:53;;;;;;;2.80;2.50;;;22.40;99.90;;;;;;5056336;28;20442;-77
2022/07/06 07:06:19;;;;;;;4.03;2.80;;;22.50;99.90;;;;;;5056313;28;20029;-77
2022/07/06 07:08:45;;;;;;;3.10;2.35;;;22.60;99.90;;;;;;5056318;28;20099;-77
2022/07/06 07:11:10;;;;;;;2.85;2.60;;;22.80;99.90;;;;;;5056338;28;20052;-77
2022/07/06 07:13:36;;;;;;;7.07;2.30;;;22.90;99.90;;;;;;5055938;28;20480;-77
2022/07/06 07:16:01;;;;;;;4.75;2.17;;;23.00;99.90;;;;;;5054992;28;20123;-77
2022/07/06 07:18:27;;;;;;;4.20;2.05;;;23.10;99.90;;;;;;5055804;28;20056;-77
2022/07/06 07:20:52;;;;;;;3.00;2.35;;;23.20;99.90;;;;;;5056191;28;20053;-77
2022/07/06 07:23:18;;;;;;;3.85;2.53;;;23.50;99.90;;;;;;5054702;28;20366;-77
2022/07/06 07:25:44;;;;;;;3.30;2.35;;;23.60;99.90;;;;;;5055986;28;20029;-77
2022/07/06 07:28:10;;;;;;;2.20;2.08;;;23.50;99.90;;;;;;5054525;28;20586;-77
2022/07/06 07:30:35;;;;;;;1.80;1.70;;;23.40;99.90;;;;;;5054673;28;20025;-77
2022/07/06 07:33:01;;;;;;;2.13;2.03;;;23.30;99.90;;;;;;5056180;28;20021;-77
2022/07/06 07:35:27;;;;;;;3.05;2.08;;;23.30;99.90;;;;;;5055967;28;20017;-77
2022/07/06 07:37:53;;;;;;;2.05;1.90;;;23.30;99.90;;;;;;5054538;28;20389;-76
2022/07/06 07:40:19;;;;;;;10.27;1.77;;;23.20;99.90;;;;;;5054058;28;20025;-77
2022/07/06 07:42:45;;;;;;;3.35;1.90;;;23.60;99.90;;;;;;5055533;28;20025;-77
2022/07/06 07:45:11;;;;;;;2.65;1.75;;;24.10;99.90;;;;;;5055505;28;20056;-77
2022/07/06 07:47:38;;;;;;;1.40;1.40;;;24.30;99.90;;;;;;5055566;28;20029;-77
2022/07/06 07:50:05;;;;;;;2.33;2.10;;;24.40;99.90;;;;;;5054159;28;20025;-77
2022/07/06 07:52:31;;;;;;;1.75;1.50;;;24.10;99.90;;;;;;5055462;28;20044;-77
2022/07/06 07:54:57;;;;;;;1.90;1.70;;;23.90;99.90;;;;;;5055522;28;20025;-77
2022/07/06 07:57:23;;;;;;;2.00;1.90;;;24.10;99.90;;;;;;5055149;28;20053;-78
2022/07/06 07:59:48;;;;;;;3.85;1.83;;;24.30;99.90;;;;;;5053921;28;20523;-79
2022/07/06 08:02:14;;;;;;;2.13;1.80;;;24.70;99.90;;;;;;5053975;28;20040;-78
2022/07/06 08:04:40;;;;;;;3.00;1.40;;;25.20;99.90;;;;;;5055502;28;20408;-78
2022/07/06 08:07:06;;;;;;;6.03;1.80;;;25.80;99.90;;;;;;5055562;28;20052;-78
2022/07/06 08:09:33;;;;;;;1.83;1.70;;;26.30;97.80;;;;;;5055471;28;20036;-79
2022/07/06 08:11:58;;;;;;;2.97;1.60;;;26.50;95.80;;;;;;5054760;28;20040;-77
2022/07/06 08:14:25;;;;;;;1.42;1.30;;;26.50;93.70;;;;;;5054744;28;20025;-77
2022/07/06 08:16:51;;;;;;;3.63;1.80;;;26.40;91.70;;;;;;5053566;28;20029;-77
2022/07/06 08:19:16;;;;;;;1.50;1.20;;;26.30;92.00;;;;;;5055151;28;20083;-79
2022/07/06 08:21:43;;;;;;;2.15;1.50;;;26.50;91.10;;;;;;5053635;28;20484;-79
2022/07/06 08:24:09;;;;;;;1.52;1.42;;;27.00;90.00;;;;;;5054960;28;20523;-79
2022/07/06 08:26:35;;;;;;;2.78;1.27;;;27.40;85.20;;;;;;5054901;28;20091;-79
2022/07/06 08:29:01;;;;;;;2.70;1.05;;;27.60;83.20;;;;;;5055071;28;20496;-79
2022/07/06 08:31:29;;;;;;;3.30;1.15;;;28.00;81.20;;;;;;5053471;28;20052;-79
2022/07/06 08:33:55;;;;;;;2.15;1.13;;;28.10;79.30;;;;;;5054683;28;20111;-79
2022/07/06 08:36:21;;;;;;;1.60;1.42;;;28.20;78.80;;;;;;5054788;28;20108;-80
2022/07/06 08:38:48;;;;;;;1.38;1.08;;;28.20;75.10;;;;;;5054028;28;20029;-80
2022/07/06 08:41:18;;;;;;;2.15;1.10;;;28.00;74.70;;;;;;5054519;28;20025;-80
2022/07/06 08:43:43;;;;;;;1.70;1.10;;;28.00;74.10;;;;;;5054585;28;20020;-79
2022/07/06 08:46:12;;;;;;;4.93;1.20;;;28.30;74.60;;;;;;5054989;28;20033;-81
2022/07/06 08:48:40;;;;;;;2.28;1.48;;;28.60;72.30;;;;;;5054213;28;20029;-80
2022/07/06 08:51:14;;;;;;;3.20;1.20;;;29.30;69.60;;;;;;5052996;28;20029;-80
2022/07/06 08:53:41;;;;;;;1.48;1.25;;;29.50;65.10;;;;;;5054548;28;20083;-79
2022/07/06 08:56:08;;;;;;;1.83;1.27;;;29.60;65.90;;;;;;5052932;28;20503;-80
2022/07/06 08:58:34;;;;;;;3.35;1.20;;;29.60;66.30;;;;;;5052873;28;20087;-79
2022/07/06 09:01:00;;;;;;;1.20;1.10;;;29.60;67.30;;;;;;5054207;28;20342;-78
2022/07/06 09:03:27;;;;;;;2.55;1.42;;;29.60;64.40;;;;;;5052804;28;20032;-79
2022/07/06 09:05:58;;;;;;;2.47;1.70;;;29.40;65.70;;;;;;5054165;28;20111;-77
2022/07/06 09:08:26;;;;;;;1.38;1.25;;;28.90;67.10;;;;;;5054181;28;20032;-78
2022/07/06 09:10:52;;;;;;;4.22;1.33;;;28.90;69.00;;;;;;5053766;28;20021;-80
2022/07/06 09:13:18;;;;;;;1.65;1.55;;;28.70;68.30;;;;;;5053674;28;20035;-80
2022/07/06 09:15:43;;;;;;;3.35;1.60;;;28.00;69.10;;;;;;5053619;28;20028;-79
2022/07/06 09:18:09;;;;;;;1.83;1.58;;;27.70;72.30;;;;;;5052597;28;20029;-76
2022/07/06 09:20:35;;;;;;;4.35;1.58;;;27.90;70.70;;;;;;5053636;28;20025;-77
2022/07/06 09:23:03;;;;;;;3.80;1.70;;;27.90;69.70;;;;;;5053485;28;20052;-79
2022/07/06 09:25:29;;;;;;;1.60;1.50;;;28.00;69.70;;;;;;5052393;28;20021;-79
2022/07/06 09:27:57;;;;;;;2.95;1.63;;;28.40;69.80;;;;;;5053451;28;20033;-80
2022/07/06 09:30:24;;;;;;;3.35;1.30;;;29.10;67.00;;;;;;5052268;28;20488;-79
2022/07/06 09:32:52;;;;;;;1.63;1.33;;;29.20;64.50;;;;;;5052890;28;20040;-79
2022/07/06 09:35:36;;;;;;;3.03;1.58;;;29.60;63.40;;;;;;5054133;28;20021;-78
2022/07/06 09:38:08;;;;;;;1.60;1.50;;;29.80;62.50;;;;;;5053775;28;20091;-79
2022/07/06 09:40:42;;;;;;;1.27;1.20;;;29.50;63.90;;;;;;5053803;28;20484;-79
2022/07/06 09:43:08;;;;;;;3.00;1.40;;;29.90;64.50;;;;;;5053639;28;20060;-82
2022/07/06 09:45:38;;;;;;;2.03;1.58;;;30.40;63.20;;;;;;5052366;28;20036;-78
2022/07/06 09:48:12;;;;;;;3.63;1.55;;;30.10;63.10;;;;;;5052322;28;20025;-77
2022/07/06 09:50:43;;;;;;;2.47;1.17;;;29.80;61.50;;;;;;5053634;28;20029;-79
2022/07/06 09:53:09;;;;;;;3.38;1.30;;;30.30;60.30;;;;;;5053593;28;20028;-77
2022/07/06 09:55:35;;;;;;;2.35;1.60;;;30.50;59.30;;;;;;5053465;28;20036;-78
2022/07/06 09:58:02;;;;;;;1.50;1.30;;;31.30;60.80;;;;;;5053710;28;20048;-77
2022/07/06 10:00:28;;;;;;;3.03;1.35;;;31.60;55.90;;;;;;5053816;28;20033;-77
2022/07/06 10:02:54;;;;;;;2.35;1.33;;;31.80;56.10;;;;;;5052125;28;20029;-79
2022/07/06 10:05:26;;;;;;;1.50;1.40;;;32.00;55.30;;;;;;5052084;28;20025;-81
2022/07/06 10:07:56;;;;;;;1.40;1.30;;;32.10;54.70;;;;;;5052608;28;20456;-81
2022/07/06 10:10:27;;;;;;;2.15;1.33;;;31.90;55.10;;;;;;5053606;28;20024;-83
2022/07/06 10:12:56;;;;;;;1.85;1.33;;;31.50;56.50;;;;;;5052244;28;20469;-62
2022/07/06 10:15:25;;;;;;;;;;;30.50;58.00;;;;;;5053869;28;20033;-62
2022/07/06 10:17:52;;;;;;;1.85;1.65;;;29.70;59.80;;;;;;5053277;28;19912;-65
2022/07/06 10:20:19;;;;;;;2.38;1.70;;;28.60;63.30;;;;;;5051965;28;20033;-65
2022/07/06 10:22:49;;;;;;;3.90;2.00;;;27.80;66.90;;;;;;5053204;28;20033;-64
2022/07/06 10:25:19;;;;;;;2.05;1.60;;;27.10;68.30;;;;;;5051837;28;20028;-65
2022/07/06 10:27:46;;;;;;;2.45;1.80;;;26.60;71.10;;;;;;5052037;28;20103;-66
2022/07/06 10:30:13;;;;;;;2.63;1.90;;;26.30;72.60;;;;;;5053129;28;20033;-64
2022/07/06 10:32:41;;;;;;;4.10;1.80;;;26.10;74.70;;;;;;5053000;28;20446;-77
2022/07/06 10:35:07;;;;;;;2.20;1.50;;;25.70;74.10;;;;;;5056462;28;20104;-71
2022/07/06 10:37:33;;;;;;;6.38;1.73;;;25.20;75.00;;;;;;5056904;28;20037;-72
2022/07/06 10:42:43;;;;;;;1.80;1.10;;;24.10;82.30;;;;;;5056821;28;20071;-73
2022/07/06 10:45:11;;;;;;;1.23;1.13;;;22.80;81.30;;;;;;5055826;28;20048;-57
2022/07/06 10:47:37;;;;;;;0.85;0.65;;;21.90;83.70;;;;;;5056708;28;20033;-57
2022/07/06 10:50:03;;;;;;;2.35;0.80;;;21.30;82.40;;;;;;5056563;28;20115;-57
2022/07/06 10:52:51;;;;;;;2.53;1.00;;;20.80;90.20;;;;;;5054575;28;20025;-57
2022/07/06 10:55:35;;;;;;;1.45;0.82;;;20.20;99.90;;;;;;5056440;28;20027;-57
2022/07/06 10:58:02;;;;;;;1.52;1.10;;;19.50;99.90;;;;;;5056136;28;20516;-57
2022/07/06 11:01:04;;;;;;;1.70;0.98;;;19.00;99.90;;;;;;5056433;28;20025;-57
2022/07/06 11:03:42;;;;;;;2.45;1.23;;;18.70;99.90;;;;;;5014293;28;20042;-57
2022/07/06 11:06:20;;;;;;;4.13;1.95;;;18.60;99.90;;;;;;5051861;28;20041;-57
2022/07/06 11:08:57;;;;;;;5.03;1.38;;;18.70;99.90;;;;;;5056336;28;20350;-57
2022/07/06 11:11:41;;;;;;;2.03;1.23;;;18.80;99.90;;;;;;5056630;28;20108;-57
2022/07/06 11:14:13;;;;;;;1.95;0.95;;;19.90;99.90;;;;;;5056396;28;20071;-57
2022/07/06 11:17:01;;;;;;;4.38;1.25;;;21.40;99.90;;;;;;5055934;28;20029;-55
2022/07/06 11:19:27;;;;;;;1.15;0.95;;;22.60;99.90;;;;;;5055705;28;20041;-55
2022/07/06 11:22:08;;;;;;;1.52;0.80;;;23.90;96.00;;;;;;5056253;28;20075;-55
2022/07/06 11:24:35;;;;;;;1.65;0.80;;;24.70;92.20;;;;;;5056129;28;20043;-55
2022/07/06 11:27:01;;;;;;;3.15;0.80;;;25.20;90.20;;;;;;5055664;28;20025;-55
2022/07/06 11:29:28;;;;;;;2.38;1.10;;;25.90;86.20;;;;;;5055929;28;20032;-55
2022/07/06 11:32:00;;;;;;;1.58;1.17;;;26.20;81.50;;;;;;5055750;28;20112;-55
2022/07/06 11:34:33;;;;;;;7.25;1.10;;;26.70;79.50;;;;;;5055750;28;20424;-55
2022/07/06 11:37:07;;;;;;;3.05;0.85;;;27.40;77.90;;;;;;5055874;28;20098;-55
2022/07/06 11:39:35;;;;;;;2.78;0.90;;;28.10;74.30;;;;;;5055663;28;20029;-57
2022/07/06 11:42:03;;;;;;;3.05;1.10;;;28.60;73.80;;;;;;5055623;28;20021;-55
2022/07/06 11:44:29;;;;;;;1.42;0.88;;;28.60;71.80;;;;;;5055590;28;20036;-55
2022/07/06 11:47:00;;;;;;;1.10;0.85;;;28.50;71.70;;;;;;5054309;28;20392;-55
2022/07/06 11:49:26;;;;;;;4.63;1.50;;;28.60;71.80;;;;;;5055483;28;20021;-55
2022/07/06 11:51:52;;;;;;;1.48;1.02;;;28.60;71.30;;;;;;5055661;28;20037;-55
2022/07/06 11:54:20;;;;;;;1.17;1.00;;;28.70;71.40;;;;;;5055663;28;20029;-55
2022/07/06 11:56:54;;;;;;;1.50;1.40;;;28.80;71.40;;;;;;5054801;28;20037;-55
2022/07/06 11:59:26;;;;;;;4.85;1.40;;;28.80;72.10;;;;;;5055248;28;20414;-57
2022/07/06 12:02:03;;;;;;;1.52;1.42;;;28.90;73.10;;;;;;5055200;28;20033;-55
2022/07/06 12:04:30;;;;;;;3.75;1.30;;;29.20;72.20;;;;;;5055210;28;20060;-55
2022/07/06 12:07:00;;;;;;;1.50;1.38;;;29.20;72.70;;;;;;5055092;28;20029;-55
2022/07/06 12:09:30;;;;;;;1.52;1.42;;;29.30;71.30;;;;;;5054976;28;20091;-55
2022/07/06 12:11:56;;;;;;;4.47;1.55;;;29.60;70.50;;;;;;5054906;28;20079;-55
2022/07/06 12:14:22;;;;;;;1.20;1.20;;;29.60;70.40;;;;;;5053967;28;20021;-55
2022/07/06 12:16:51;;;;;;;2.83;1.50;;;28.50;71.20;;;;;;5055231;28;20142;-55
2022/07/06 12:19:17;;;;;;;3.85;1.30;;;28.70;73.10;;;;;;5054867;28;20075;-55
2022/07/06 12:21:48;;;;;;;3.08;1.55;;;29.40;71.10;;;;;;5054730;28;20480;-55
2022/07/06 12:24:19;;;;;;;4.40;1.50;;;30.10;70.20;;;;;;5054490;28;20049;-56
2022/07/06 12:26:45;;;;;;;1.85;1.30;;;29.10;70.20;;;;;;5055154;28;20041;-55
2022/07/06 12:29:13;;;;;;;6.72;1.73;;;28.10;74.00;;;;;;5054743;28;20116;-61
2022/07/06 12:31:43;;;;;;;1.88;1.75;;;27.30;75.80;;;;;;5054550;28;20025;-63
2022/07/06 12:34:15;;;;;;;2.20;2.00;;;27.00;78.80;;;;;;5053850;28;20091;-63
2022/07/06 12:36:55;;;;;;;2.53;2.25;;;26.60;82.50;;;;;;5054714;28;20466;-62
2022/07/06 12:39:26;;;;;;;3.38;1.90;;;26.30;83.50;;;;;;5054563;28;20021;-63
2022/07/06 12:41:53;;;;;;;3.95;1.60;;;26.10;83.20;;;;;;5054224;28;20049;-64
2022/07/06 12:44:23;;;;;;;1.63;1.52;;;25.80;84.50;;;;;;5054281;28;20373;-63
2022/07/06 12:46:50;;;;;;;7.57;1.65;;;25.60;86.50;;;;;;5054318;28;20041;-62